Time;durP1;ratioP1;P1;durP2;ratioP2;P2;SDS_P1;SDS_P2;PMS_P1;PMS_P2;Temp;Humidity;BMP_temperature;BMP_pressure;BME280_temperature;BME280_humidity;BME280_pressure;Samples;Min_cycle;Max_cycle;Signal;HPM_P1;HPM_P2
2021/03/07 00:01:57;;;;;;;19.43;14.60;;;4.50;59.70;;;;;;5073334;28;20436;-72
2021/03/07 00:04:24;;;;;;;14.90;13.30;;;4.50;59.70;;;;;;5073327;28;20447;-72
2021/03/07 00:06:50;;;;;;;16.60;13.30;;;4.50;59.80;;;;;;5073086;28;20472;-72
2021/03/07 00:09:16;;;;;;;17.63;13.23;;;4.40;59.70;;;;;;5073286;28;20452;-72
2021/03/07 00:11:42;;;;;;;17.40;13.70;;;4.40;59.90;;;;;;5073209;28;20452;-72
2021/03/07 00:14:08;;;;;;;17.83;14.93;;;4.40;59.90;;;;;;5073179;28;20457;-72
2021/03/07 00:16:35;;;;;;;22.03;14.00;;;4.30;59.80;;;;;;5073110;28;20460;-72
2021/03/07 00:19:02;;;;;;;14.00;12.60;;;4.30;60.20;;;;;;5073292;28;20436;-72
2021/03/07 00:21:28;;;;;;;23.27;13.30;;;4.30;60.40;;;;;;5072947;28;20953;-72
2021/03/07 00:23:54;;;;;;;13.27;11.13;;;4.20;60.40;;;;;;5073200;28;20448;-72
2021/03/07 00:26:20;;;;;;;16.90;13.40;;;4.20;60.70;;;;;;5073073;28;20464;-72
2021/03/07 00:28:47;;;;;;;14.40;11.97;;;4.20;61.50;;;;;;5073140;28;20451;-72
2021/03/07 00:31:13;;;;;;;13.10;11.27;;;4.10;60.70;;;;;;5076005;28;20493;-72
2021/03/07 00:33:39;;;;;;;14.07;11.87;;;4.00;60.90;;;;;;5077060;28;20479;-72
2021/03/07 00:36:06;;;;;;;13.17;11.77;;;4.00;61.60;;;;;;5077863;28;20448;-72
2021/03/07 00:38:32;;;;;;;14.30;11.70;;;4.00;62.20;;;;;;5076721;28;20953;-72
2021/03/07 00:40:59;;;;;;;12.30;11.00;;;3.90;62.00;;;;;;5077024;28;20486;-72
2021/03/07 00:43:25;;;;;;;13.13;11.60;;;3.90;62.30;;;;;;5076920;28;20443;-72
2021/03/07 00:45:51;;;;;;;14.43;11.37;;;3.80;62.50;;;;;;5076811;28;20452;-72
2021/03/07 00:48:17;;;;;;;13.93;11.83;;;3.80;62.60;;;;;;5076862;28;20447;-72
2021/03/07 00:50:44;;;;;;;12.60;11.00;;;3.80;63.00;;;;;;5076755;28;20469;-72
2021/03/07 00:53:11;;;;;;;16.60;13.63;;;3.70;62.90;;;;;;5076661;28;20505;-72
2021/03/07 00:55:37;;;;;;;16.10;13.13;;;3.70;63.10;;;;;;5076666;28;20505;-72
2021/03/07 00:58:03;;;;;;;13.30;11.73;;;3.70;63.30;;;;;;5076574;28;20544;-72
2021/03/07 01:00:30;;;;;;;14.03;12.00;;;3.70;63.30;;;;;;5076282;28;20818;-72
2021/03/07 01:02:56;;;;;;;15.33;12.33;;;3.70;63.40;;;;;;5076240;28;20925;-72
2021/03/07 01:05:25;;;;;;;15.80;13.23;;;3.70;63.40;;;;;;5076372;28;20529;-72
2021/03/07 01:07:51;;;;;;;15.37;13.30;;;3.60;63.30;;;;;;5076392;28;20525;-72
2021/03/07 01:10:22;;;;;;;13.80;12.07;;;3.60;63.40;;;;;;5076448;28;20859;-72
2021/03/07 01:12:50;;;;;;;16.17;12.97;;;3.60;63.40;;;;;;5076617;28;20837;-72
2021/03/07 01:15:18;;;;;;;15.77;13.03;;;3.60;63.20;;;;;;5076288;28;20450;-72
2021/03/07 01:17:44;;;;;;;15.60;12.40;;;3.60;63.30;;;;;;5076255;28;20473;-72
2021/03/07 01:20:14;;;;;;;15.37;12.50;;;3.60;63.40;;;;;;5076248;28;20521;-72
2021/03/07 01:22:40;;;;;;;15.80;12.70;;;3.60;63.20;;;;;;5076205;28;20447;-72
2021/03/07 01:25:08;;;;;;;19.60;12.13;;;3.60;63.20;;;;;;5075848;28;20937;-72
2021/03/07 01:27:36;;;;;;;14.87;13.27;;;3.50;63.40;;;;;;5076007;28;20463;-72
2021/03/07 01:30:05;;;;;;;17.87;13.60;;;3.50;63.60;;;;;;5076076;28;20497;-72
2021/03/07 01:32:31;;;;;;;14.27;12.70;;;3.50;63.90;;;;;;5075975;28;20458;-72
2021/03/07 01:34:57;;;;;;;13.03;11.63;;;3.40;64.10;;;;;;5076254;28;20442;-72
2021/03/07 01:37:24;;;;;;;14.00;11.87;;;3.40;64.30;;;;;;5075822;28;20463;-72
2021/03/07 01:39:50;;;;;;;13.23;11.77;;;3.40;64.60;;;;;;5075559;28;21006;-72
2021/03/07 01:42:16;;;;;;;13.10;11.90;;;3.30;64.80;;;;;;5075301;28;20444;-72
2021/03/07 01:44:43;;;;;;;12.80;11.50;;;3.30;65.20;;;;;;5075431;28;20967;-72
2021/03/07 01:47:09;;;;;;;12.40;11.10;;;3.30;65.00;;;;;;5075711;28;20467;-72
2021/03/07 01:49:36;;;;;;;14.70;11.27;;;3.30;65.20;;;;;;5075765;28;20441;-72
2021/03/07 01:52:03;;;;;;;13.30;11.50;;;3.30;65.40;;;;;;5075688;28;20447;-72
2021/03/07 01:54:29;;;;;;;14.90;12.87;;;3.30;65.30;;;;;;5075586;28;20848;-72
2021/03/07 01:56:56;;;;;;;13.70;12.30;;;3.30;65.50;;;;;;5075200;28;21008;-72
2021/03/07 01:59:24;;;;;;;18.30;12.50;;;3.20;65.30;;;;;;5075549;28;20499;-72
2021/03/07 02:01:52;;;;;;;14.70;11.97;;;3.20;65.40;;;;;;5075796;28;20447;-72
2021/03/07 02:04:18;;;;;;;13.70;12.27;;;3.20;65.40;;;;;;5075524;28;20495;-72
2021/03/07 02:06:44;;;;;;;17.23;12.27;;;3.20;65.30;;;;;;5075151;28;20481;-72
2021/03/07 02:09:10;;;;;;;14.83;11.70;;;3.20;65.50;;;;;;5075415;28;20454;-72
2021/03/07 02:11:40;;;;;;;14.93;12.23;;;3.20;65.40;;;;;;5075333;28;20463;-72
2021/03/07 02:14:08;;;;;;;16.40;12.57;;;3.20;65.20;;;;;;5075291;28;20514;-72
2021/03/07 02:16:35;;;;;;;14.23;12.83;;;3.20;65.30;;;;;;5076162;28;20475;-72
2021/03/07 02:19:06;;;;;;;13.63;12.17;;;3.20;65.50;;;;;;5075633;28;20453;-72
2021/03/07 02:21:37;;;;;;;16.83;13.37;;;3.20;65.50;;;;;;5075236;28;20435;-72
2021/03/07 02:24:07;;;;;;;15.30;13.83;;;3.20;65.40;;;;;;5074889;28;20927;-72
2021/03/07 02:26:35;;;;;;;21.13;13.43;;;3.20;65.60;;;;;;5074710;28;21006;-72
2021/03/07 02:29:03;;;;;;;14.73;12.50;;;3.20;65.70;;;;;;5074712;28;20499;-72
2021/03/07 02:31:30;;;;;;;15.87;12.90;;;3.10;65.60;;;;;;5075047;28;20863;-72
2021/03/07 02:34:00;;;;;;;14.00;12.33;;;3.20;65.60;;;;;;5075157;28;20528;-72
2021/03/07 02:36:31;;;;;;;14.70;12.43;;;3.10;65.40;;;;;;5075062;28;20462;-72
2021/03/07 02:39:00;;;;;;;12.70;11.40;;;3.10;65.40;;;;;;5075168;28;20434;-72
2021/03/07 02:41:30;;;;;;;15.87;12.40;;;3.10;65.40;;;;;;5075036;28;20431;-72
2021/03/07 02:43:58;;;;;;;14.00;12.20;;;3.00;65.40;;;;;;5074582;28;20949;-72
2021/03/07 02:46:25;;;;;;;15.80;13.13;;;3.00;65.70;;;;;;5074854;28;20489;-72
2021/03/07 02:48:55;;;;;;;14.50;12.10;;;3.00;66.10;;;;;;5074949;28;20447;-72
2021/03/07 02:51:23;;;;;;;15.80;12.40;;;2.90;66.20;;;;;;5074859;28;20528;-72
2021/03/07 02:53:52;;;;;;;14.83;12.50;;;2.90;66.30;;;;;;5073935;28;20481;-72
2021/03/07 02:56:21;;;;;;;17.70;13.50;;;2.90;66.40;;;;;;5074868;28;20572;-72
2021/03/07 02:58:52;;;;;;;16.23;11.97;;;2.90;66.50;;;;;;5074898;28;20989;-72
2021/03/07 03:01:19;;;;;;;15.40;12.53;;;2.90;66.40;;;;;;5074680;28;20430;-72
2021/03/07 03:03:49;;;;;;;15.30;12.50;;;2.90;66.30;;;;;;5074343;28;20937;-72
2021/03/07 03:06:18;;;;;;;14.03;11.97;;;2.80;66.10;;;;;;5074456;28;20505;-72
2021/03/07 03:08:47;;;;;;;12.67;11.37;;;2.80;66.00;;;;;;5074534;28;20442;-72
2021/03/07 03:11:14;;;;;;;13.80;11.73;;;2.80;66.10;;;;;;5074193;28;20446;-72
2021/03/07 03:13:41;;;;;;;12.40;11.10;;;2.80;66.50;;;;;;5073890;28;20466;-72
2021/03/07 03:16:10;;;;;;;13.90;11.70;;;2.80;66.70;;;;;;5074437;28;20441;-72
2021/03/07 03:18:38;;;;;;;12.70;11.40;;;2.70;66.70;;;;;;5074501;28;20521;-72
2021/03/07 03:21:11;;;;;;;12.40;11.10;;;2.60;66.90;;;;;;5074329;28;20448;-72
2021/03/07 03:23:37;;;;;;;13.60;11.90;;;2.60;66.70;;;;;;5074503;28;20484;-72
2021/03/07 03:26:04;;;;;;;15.13;11.47;;;2.60;67.10;;;;;;5074214;28;20441;-72
2021/03/07 03:28:30;;;;;;;14.43;12.67;;;2.60;67.40;;;;;;5073962;28;20431;-72
2021/03/07 03:30:57;;;;;;;18.23;12.83;;;2.60;67.40;;;;;;5074131;28;20451;-72
2021/03/07 03:33:25;;;;;;;15.77;12.00;;;2.60;67.40;;;;;;5073719;28;20886;-72
2021/03/07 03:35:52;;;;;;;13.87;12.47;;;2.60;67.30;;;;;;5073721;28;20449;-72
2021/03/07 03:38:18;;;;;;;14.20;11.33;;;2.50;67.20;;;;;;5073762;28;20501;-72
2021/03/07 03:40:47;;;;;;;13.50;11.60;;;2.50;67.10;;;;;;5073751;28;20446;-72
2021/03/07 03:43:15;;;;;;;14.30;11.50;;;2.50;67.00;;;;;;5073353;28;20826;-72
2021/03/07 03:45:43;;;;;;;13.43;11.67;;;2.50;66.80;;;;;;5073632;28;20445;-72
2021/03/07 03:48:14;;;;;;;12.03;10.83;;;2.50;67.00;;;;;;5073233;28;20476;-72
2021/03/07 03:50:43;;;;;;;12.93;11.60;;;2.50;67.10;;;;;;5073631;28;20429;-72
2021/03/07 03:53:14;;;;;;;13.60;12.17;;;2.40;66.90;;;;;;5073533;28;20504;-72
2021/03/07 03:55:43;;;;;;;13.77;11.40;;;2.40;67.40;;;;;;5074120;28;20437;-72
2021/03/07 03:58:10;;;;;;;13.23;10.77;;;2.30;67.40;;;;;;5073452;28;20500;-72
2021/03/07 04:00:39;;;;;;;13.23;11.63;;;2.40;67.70;;;;;;5073473;28;20440;-71
2021/03/07 04:03:07;;;;;;;12.60;10.73;;;2.30;67.60;;;;;;5073558;28;20441;-72
2021/03/07 04:05:35;;;;;;;13.60;12.10;;;2.30;67.90;;;;;;5073395;28;20467;-72
2021/03/07 04:08:04;;;;;;;13.20;11.00;;;2.30;68.10;;;;;;5073264;28;21008;-72
2021/03/07 04:10:31;;;;;;;13.63;12.23;;;2.30;68.20;;;;;;5073391;28;20444;-72
2021/03/07 04:12:59;;;;;;;12.33;11.00;;;2.30;68.40;;;;;;5073034;28;20477;-72
2021/03/07 04:15:28;;;;;;;14.50;11.03;;;2.20;68.20;;;;;;5073316;28;20820;-72
2021/03/07 04:17:55;;;;;;;14.33;12.20;;;2.20;68.50;;;;;;5073237;28;20499;-72
2021/03/07 04:20:22;;;;;;;19.50;12.53;;;2.20;68.80;;;;;;5073307;28;20477;-72
2021/03/07 04:22:49;;;;;;;13.87;12.37;;;2.10;68.80;;;;;;5073261;28;20849;-72
2021/03/07 04:25:16;;;;;;;12.80;10.93;;;2.10;68.90;;;;;;5073215;28;20445;-72
2021/03/07 04:27:43;;;;;;;12.23;10.90;;;2.10;68.70;;;;;;5073112;28;20522;-72
2021/03/07 04:30:11;;;;;;;16.13;12.67;;;2.10;68.60;;;;;;5072874;28;20946;-72
2021/03/07 04:32:39;;;;;;;16.20;12.30;;;2.10;68.70;;;;;;5073088;28;20444;-72
2021/03/07 04:35:07;;;;;;;16.10;12.60;;;2.10;68.70;;;;;;5072867;28;20447;-72
2021/03/07 04:37:33;;;;;;;12.90;11.07;;;2.10;68.60;;;;;;5073011;28;20476;-72
2021/03/07 04:40:00;;;;;;;13.93;12.23;;;2.10;68.50;;;;;;5073108;28;20444;-72
2021/03/07 04:42:28;;;;;;;15.03;12.23;;;2.10;68.50;;;;;;5073095;28;20451;-72
2021/03/07 04:44:54;;;;;;;13.23;10.40;;;2.10;68.30;;;;;;5073031;28;20441;-72
2021/03/07 04:47:20;;;;;;;11.97;10.63;;;2.10;68.20;;;;;;5072964;28;20465;-72
2021/03/07 04:49:47;;;;;;;15.10;11.97;;;2.10;68.00;;;;;;5073004;28;20448;-72
2021/03/07 04:52:13;;;;;;;14.20;11.93;;;2.10;68.10;;;;;;5072961;28;20498;-72
2021/03/07 04:54:39;;;;;;;11.70;10.50;;;2.10;68.50;;;;;;5072901;28;20510;-72
2021/03/07 04:57:06;;;;;;;16.40;11.40;;;2.10;68.60;;;;;;5072535;28;20473;-72
2021/03/07 04:59:33;;;;;;;12.20;11.00;;;2.10;68.50;;;;;;5072921;28;20451;-72
2021/03/07 05:01:59;;;;;;;14.57;11.73;;;2.10;68.60;;;;;;5072884;28;20464;-72
2021/03/07 05:04:25;;;;;;;15.60;11.77;;;2.10;68.60;;;;;;5072553;28;20819;-72
2021/03/07 05:06:52;;;;;;;12.30;11.20;;;2.00;68.30;;;;;;5072360;28;20503;-72
2021/03/07 05:09:18;;;;;;;13.30;11.50;;;2.00;68.40;;;;;;5072523;28;20830;-72
2021/03/07 05:11:45;;;;;;;13.20;11.80;;;2.00;68.50;;;;;;5073363;28;20447;-72
2021/03/07 05:14:11;;;;;;;13.00;11.20;;;2.00;68.60;;;;;;5072701;28;20495;-72
2021/03/07 05:16:38;;;;;;;12.60;11.30;;;2.00;68.60;;;;;;5074202;28;20467;-72
2021/03/07 05:19:05;;;;;;;12.30;11.03;;;1.90;68.50;;;;;;5076000;28;20941;-72
2021/03/07 05:21:31;;;;;;;12.93;10.77;;;1.90;68.60;;;;;;5076330;28;20459;-72
2021/03/07 05:24:00;;;;;;;11.77;10.50;;;1.90;68.50;;;;;;5075904;28;20933;-72
2021/03/07 05:26:28;;;;;;;14.73;11.10;;;1.90;68.40;;;;;;5075832;28;20467;-72
2021/03/07 05:28:54;;;;;;;12.63;11.40;;;1.90;68.30;;;;;;5076168;28;20458;-72
2021/03/07 05:31:20;;;;;;;11.47;10.00;;;1.80;68.40;;;;;;5076152;28;20452;-72
2021/03/07 05:33:48;;;;;;;12.97;11.47;;;1.80;68.20;;;;;;5076039;28;20817;-72
2021/03/07 05:36:14;;;;;;;12.63;11.00;;;1.80;68.30;;;;;;5075674;28;20991;-72
2021/03/07 05:38:40;;;;;;;11.57;10.30;;;1.80;68.70;;;;;;5076005;28;20443;-72
2021/03/07 05:41:07;;;;;;;12.60;11.17;;;1.70;68.90;;;;;;5075969;28;20853;-72
2021/03/07 05:43:33;;;;;;;16.43;11.20;;;1.70;69.00;;;;;;5075940;28;20814;-72
2021/03/07 05:45:59;;;;;;;18.17;10.50;;;1.70;69.10;;;;;;5075780;28;20456;-72
2021/03/07 05:48:27;;;;;;;12.17;10.90;;;1.70;69.20;;;;;;5075813;28;20448;-72
2021/03/07 05:50:55;;;;;;;10.77;9.67;;;1.60;69.10;;;;;;5076022;28;20444;-72
2021/03/07 05:53:21;;;;;;;11.40;10.27;;;1.60;69.20;;;;;;5075357;28;20476;-72
2021/03/07 05:55:48;;;;;;;14.70;10.67;;;1.60;69.20;;;;;;5075424;28;20447;-72
2021/03/07 05:58:16;;;;;;;13.17;10.13;;;1.60;69.30;;;;;;5075603;28;20469;-72
2021/03/07 06:00:43;;;;;;;13.63;10.57;;;1.60;69.30;;;;;;5075552;28;20822;-72
2021/03/07 06:03:09;;;;;;;14.77;10.90;;;1.50;69.20;;;;;;5075562;28;20443;-72
2021/03/07 06:05:36;;;;;;;10.90;9.80;;;1.50;69.30;;;;;;5075337;28;20491;-72
2021/03/07 06:08:04;;;;;;;13.33;10.40;;;1.40;69.50;;;;;;5075630;28;20467;-72
2021/03/07 06:10:31;;;;;;;13.43;11.00;;;1.40;69.80;;;;;;5075676;28;20458;-72
2021/03/07 06:12:59;;;;;;;12.60;10.33;;;1.40;70.10;;;;;;5075291;28;20445;-72
2021/03/07 06:15:26;;;;;;;10.10;9.10;;;1.40;70.40;;;;;;5075276;28;20447;-72
2021/03/07 06:17:53;;;;;;;11.03;9.93;;;1.40;70.50;;;;;;5075220;28;20468;-72
2021/03/07 06:20:20;;;;;;;12.90;10.63;;;1.40;70.50;;;;;;5075191;28;20451;-72
2021/03/07 06:22:55;;;;;;;11.80;10.60;;;1.40;70.40;;;;;;5075163;28;20467;-71
2021/03/07 06:25:23;;;;;;;12.03;10.83;;;1.40;70.20;;;;;;5075120;28;20444;-72
2021/03/07 06:27:50;;;;;;;14.03;9.67;;;1.50;70.00;;;;;;5074923;28;20827;-72
2021/03/07 06:30:18;;;;;;;11.50;10.30;;;1.40;69.90;;;;;;5074730;28;20452;-72
2021/03/07 06:32:51;;;;;;;14.20;10.87;;;1.50;70.00;;;;;;5074794;28;20447;-72
2021/03/07 06:35:21;;;;;;;12.87;10.00;;;1.50;70.00;;;;;;5074610;28;20787;-72
2021/03/07 06:37:56;;;;;;;11.37;9.50;;;1.50;70.00;;;;;;5074680;28;20977;-72
2021/03/07 06:40:30;;;;;;;12.13;10.93;;;1.50;69.90;;;;;;5074853;28;20430;-72
2021/03/07 06:42:56;;;;;;;13.17;11.33;;;1.50;69.70;;;;;;5074774;28;20429;-72
2021/03/07 06:45:23;;;;;;;11.43;10.30;;;1.50;69.90;;;;;;5074676;28;20870;-72
2021/03/07 06:47:56;;;;;;;12.57;10.80;;;1.50;70.00;;;;;;5074569;28;20830;-72
2021/03/07 06:50:23;;;;;;;11.70;10.60;;;1.60;70.10;;;;;;5074567;28;20440;-72
2021/03/07 06:52:51;;;;;;;14.17;11.27;;;1.50;70.00;;;;;;5074478;28;20442;-72
2021/03/07 06:55:18;;;;;;;12.10;10.70;;;1.60;70.20;;;;;;5074492;28;20444;-72
2021/03/07 06:57:46;;;;;;;11.17;10.03;;;1.60;70.30;;;;;;5074690;28;20467;-72
2021/03/07 07:00:13;;;;;;;16.27;10.00;;;1.60;70.40;;;;;;5074374;28;20487;-72
2021/03/07 07:02:40;;;;;;;13.03;11.20;;;1.60;70.50;;;;;;5074456;28;20438;-72
2021/03/07 07:05:07;;;;;;;12.83;11.10;;;1.60;70.90;;;;;;5073954;28;20967;-72
2021/03/07 07:07:33;;;;;;;15.03;11.30;;;1.60;71.10;;;;;;5074224;28;20465;-72
2021/03/07 07:10:03;;;;;;;13.93;11.73;;;1.70;71.40;;;;;;5074260;28;20443;-72
2021/03/07 07:12:30;;;;;;;14.03;11.23;;;1.70;71.60;;;;;;5074218;28;20439;-72
2021/03/07 07:15:07;;;;;;;12.10;10.27;;;1.70;71.90;;;;;;5074128;28;20437;-72
2021/03/07 07:17:34;;;;;;;14.53;11.10;;;1.70;71.90;;;;;;5073770;28;20993;-72
2021/03/07 07:20:00;;;;;;;12.33;10.73;;;1.80;71.80;;;;;;5073996;28;20440;-72
2021/03/07 07:22:26;;;;;;;13.03;11.63;;;1.80;71.80;;;;;;5073723;28;20468;-72
2021/03/07 07:24:53;;;;;;;14.80;11.93;;;1.90;71.90;;;;;;5073926;28;20478;-72
2021/03/07 07:27:21;;;;;;;17.50;11.50;;;1.90;72.00;;;;;;5073518;28;20834;-73
2021/03/07 07:29:48;;;;;;;17.17;12.23;;;2.00;72.20;;;;;;5073963;28;20459;-73
2021/03/07 07:32:22;;;;;;;14.77;12.43;;;2.00;72.30;;;;;;5073891;28;20440;-74
2021/03/07 07:34:51;;;;;;;14.53;13.03;;;2.10;72.50;;;;;;5073848;28;20457;-71
2021/03/07 07:37:22;;;;;;;16.67;13.67;;;2.10;73.00;;;;;;5073674;28;20464;-72
2021/03/07 07:39:51;;;;;;;15.37;13.87;;;2.20;73.70;;;;;;5073391;28;20816;-72
2021/03/07 07:42:23;;;;;;;14.43;12.80;;;2.30;74.50;;;;;;5073730;28;20429;-72
2021/03/07 07:44:51;;;;;;;15.07;13.20;;;2.30;74.70;;;;;;5073603;28;20507;-72
2021/03/07 07:47:18;;;;;;;17.83;14.10;;;2.40;74.70;;;;;;5073245;28;20476;-72
2021/03/07 07:49:47;;;;;;;14.83;12.80;;;2.50;74.70;;;;;;5073624;28;20432;-72
2021/03/07 07:52:36;;;;;;;18.33;14.00;;;2.60;74.80;;;;;;5073583;28;20426;-72
2021/03/07 07:55:12;;;;;;;19.53;14.90;;;2.70;74.90;;;;;;5073574;28;20429;-72
2021/03/07 07:57:54;;;;;;;15.47;13.83;;;2.70;75.10;;;;;;5073465;28;20539;-72
2021/03/07 08:00:48;;;;;;;18.50;14.13;;;2.70;75.20;;;;;;5071004;28;20461;-72
2021/03/07 08:03:35;;;;;;;21.23;15.20;;;2.80;75.70;;;;;;5073338;28;20592;-72
2021/03/07 08:06:02;;;;;;;19.20;14.70;;;2.90;75.80;;;;;;5073188;28;20484;-72
2021/03/07 08:08:34;;;;;;;20.30;15.77;;;2.90;76.00;;;;;;5073400;28;20451;-72
2021/03/07 08:11:01;;;;;;;17.83;13.37;;;3.00;76.00;;;;;;5073065;28;20496;-72
2021/03/07 08:13:47;;;;;;;19.10;15.23;;;3.00;76.10;;;;;;5073359;28;20449;-72
2021/03/07 08:16:29;;;;;;;17.33;14.70;;;3.10;76.20;;;;;;5073562;28;20432;-72
2021/03/07 08:18:56;;;;;;;21.97;15.10;;;3.10;76.20;;;;;;5073137;28;20935;-72
2021/03/07 08:21:23;;;;;;;20.60;15.60;;;3.20;76.20;;;;;;5073318;28;21027;-72
2021/03/07 08:24:01;;;;;;;17.37;14.20;;;3.20;76.10;;;;;;5073174;28;20924;-72
2021/03/07 08:26:48;;;;;;;15.47;13.90;;;3.30;76.20;;;;;;5073166;28;20466;-72
2021/03/07 08:29:42;;;;;;;16.17;14.47;;;3.40;76.70;;;;;;5072893;28;20505;-72
2021/03/07 08:32:28;;;;;;;17.50;15.03;;;3.50;76.60;;;;;;5073075;28;20447;-72
2021/03/07 08:34:56;;;;;;;17.40;15.60;;;3.60;76.20;;;;;;5073522;28;20449;-72
2021/03/07 08:37:22;;;;;;;18.00;15.93;;;3.70;76.10;;;;;;5072877;28;20985;-72
2021/03/07 08:40:33;;;;;;;16.07;14.47;;;3.70;75.90;;;;;;5073202;28;20428;-72
2021/03/07 08:43:51;;;;;;;19.80;15.57;;;3.80;75.60;;;;;;5073083;28;20440;-72
2021/03/07 08:46:20;;;;;;;20.00;14.50;;;3.90;75.00;;;;;;5073009;28;20470;-72
2021/03/07 08:48:49;;;;;;;17.03;15.13;;;4.00;74.50;;;;;;5072740;28;20819;-72
2021/03/07 08:51:17;;;;;;;17.87;14.37;;;4.00;74.30;;;;;;5073930;28;20424;-72
2021/03/07 08:53:44;;;;;;;19.23;15.93;;;4.00;74.30;;;;;;5076906;28;20447;-72
2021/03/07 08:56:11;;;;;;;19.40;15.83;;;4.00;74.20;;;;;;5077055;28;20448;-73
2021/03/07 08:58:38;;;;;;;17.33;14.10;;;4.10;74.80;;;;;;5077074;28;20428;-72
2021/03/07 09:01:06;;;;;;;21.17;14.70;;;4.10;74.60;;;;;;5077029;28;20443;-72
2021/03/07 09:03:34;;;;;;;17.00;14.47;;;4.20;75.90;;;;;;5076962;28;20561;-73
2021/03/07 09:06:08;;;;;;;14.80;13.23;;;4.30;76.20;;;;;;5076743;28;20463;-72
2021/03/07 09:08:35;;;;;;;16.83;15.10;;;4.30;75.00;;;;;;5076696;28;20433;-72
2021/03/07 09:11:02;;;;;;;16.17;14.40;;;4.40;75.20;;;;;;5076663;28;20451;-72
2021/03/07 09:13:30;;;;;;;17.00;14.43;;;4.50;74.80;;;;;;5076669;28;20788;-72
2021/03/07 09:15:57;;;;;;;14.90;13.30;;;4.50;74.00;;;;;;5076127;28;20946;-72
2021/03/07 09:18:26;;;;;;;16.77;14.53;;;4.60;72.70;;;;;;5076504;28;20451;-72
2021/03/07 09:20:55;;;;;;;16.27;13.90;;;4.60;72.20;;;;;;5076411;28;20483;-72
2021/03/07 09:23:26;;;;;;;15.03;12.50;;;4.80;72.60;;;;;;5076552;28;20476;-72
2021/03/07 09:25:53;;;;;;;14.37;12.83;;;4.80;72.00;;;;;;5076436;28;20429;-72
2021/03/07 09:28:37;;;;;;;15.00;12.90;;;5.00;71.50;;;;;;5076392;28;20478;-72
2021/03/07 09:31:06;;;;;;;14.47;12.97;;;5.10;70.90;;;;;;5076249;28;20429;-72
2021/03/07 09:33:32;;;;;;;13.80;12.30;;;5.20;70.40;;;;;;5076073;28;20903;-72
2021/03/07 09:36:05;;;;;;;15.30;12.87;;;5.40;70.30;;;;;;5076262;28;20455;-74
2021/03/07 09:38:42;;;;;;;13.90;12.60;;;5.50;70.00;;;;;;5076696;28;20481;-74
2021/03/07 09:41:09;;;;;;;13.87;12.07;;;5.50;69.10;;;;;;5076589;28;20429;-71
2021/03/07 09:43:36;;;;;;;13.40;12.00;;;5.60;67.90;;;;;;5076081;28;20484;-71
2021/03/07 09:46:03;;;;;;;13.60;12.27;;;5.70;68.00;;;;;;5075989;28;20448;-72
2021/03/07 09:48:31;;;;;;;13.97;12.67;;;5.90;68.20;;;;;;5075981;28;20453;-71
2021/03/07 09:50:58;;;;;;;14.33;12.77;;;6.00;67.90;;;;;;5076653;28;20425;-72
2021/03/07 09:53:26;;;;;;;12.63;11.30;;;6.20;65.80;;;;;;5075993;28;20840;-72
2021/03/07 09:55:53;;;;;;;15.73;11.83;;;6.20;63.60;;;;;;5075539;28;20445;-73
2021/03/07 09:58:20;;;;;;;13.63;12.27;;;6.20;64.70;;;;;;5076054;28;20464;-72
2021/03/07 10:00:51;;;;;;;12.17;11.07;;;6.30;65.30;;;;;;5076295;28;20429;-73
2021/03/07 10:03:18;;;;;;;13.17;11.20;;;6.40;63.80;;;;;;5075788;28;21000;-72
2021/03/07 10:06:03;;;;;;;12.10;10.87;;;6.60;64.50;;;;;;5075555;28;20453;-73
2021/03/07 10:08:31;;;;;;;15.47;12.40;;;6.80;63.00;;;;;;5076013;28;20425;-73
2021/03/07 10:11:08;;;;;;;11.27;10.10;;;7.00;62.30;;;;;;5075286;28;20970;-73
2021/03/07 10:13:34;;;;;;;11.83;10.63;;;7.20;60.30;;;;;;5075205;28;20898;-73
2021/03/07 10:16:00;;;;;;;11.30;10.10;;;7.50;59.90;;;;;;5075261;28;20440;-73
2021/03/07 10:18:27;;;;;;;11.30;10.23;;;7.80;58.90;;;;;;5075149;28;20936;-73
2021/03/07 10:20:57;;;;;;;10.77;9.77;;;8.20;56.10;;;;;;5075427;28;20451;-73
2021/03/07 10:23:26;;;;;;;11.40;10.30;;;8.60;55.90;;;;;;5075318;28;20429;-73
2021/03/07 10:25:54;;;;;;;10.93;9.90;;;9.10;54.70;;;;;;5074887;28;20999;-73
2021/03/07 10:28:23;;;;;;;11.13;9.93;;;9.50;53.90;;;;;;5075053;28;20470;-73
2021/03/07 10:30:53;;;;;;;11.73;10.50;;;10.00;52.60;;;;;;5075046;28;20448;-73
2021/03/07 10:33:25;;;;;;;13.13;10.20;;;10.50;51.30;;;;;;5075040;28;20459;-73
2021/03/07 10:35:59;;;;;;;9.97;8.97;;;11.00;50.70;;;;;;5075118;28;20441;-73
2021/03/07 10:38:25;;;;;;;10.77;9.77;;;11.60;49.90;;;;;;5074853;28;20448;-73
2021/03/07 10:40:53;;;;;;;11.20;9.50;;;12.10;48.80;;;;;;5074957;28;20452;-73
2021/03/07 10:43:19;;;;;;;9.87;8.83;;;12.60;47.10;;;;;;5074828;28;20498;-73
2021/03/07 10:45:45;;;;;;;10.67;9.50;;;13.20;46.30;;;;;;5074996;28;20429;-73
2021/03/07 10:48:13;;;;;;;10.30;9.20;;;13.70;44.80;;;;;;5075731;28;20461;-73
2021/03/07 10:50:42;;;;;;;9.80;8.90;;;14.20;43.40;;;;;;5074732;28;20452;-73
2021/03/07 10:53:08;;;;;;;9.00;8.10;;;14.60;42.00;;;;;;5074814;28;20425;-73
2021/03/07 10:55:35;;;;;;;9.50;8.10;;;15.10;41.40;;;;;;5074647;28;20447;-74
2021/03/07 10:58:02;;;;;;;9.03;8.10;;;15.70;40.30;;;;;;5074571;28;20460;-74
2021/03/07 11:00:28;;;;;;;9.03;8.13;;;16.20;39.00;;;;;;5074893;28;20456;-75
2021/03/07 11:02:55;;;;;;;9.53;8.57;;;16.60;37.50;;;;;;5074314;28;20440;-77
2021/03/07 11:05:22;;;;;;;8.87;7.97;;;17.00;36.40;;;;;;5074336;28;20489;-75
2021/03/07 11:07:49;;;;;;;9.50;8.40;;;17.40;35.60;;;;;;5074301;28;20467;-73
2021/03/07 11:10:18;;;;;;;8.87;8.07;;;17.90;36.00;;;;;;5074243;28;20846;-73
2021/03/07 11:12:45;;;;;;;7.80;7.10;;;18.40;35.40;;;;;;5074203;28;20436;-73
2021/03/07 11:15:14;;;;;;;9.20;8.40;;;18.80;33.40;;;;;;5073615;28;20487;-74
2021/03/07 11:17:40;;;;;;;11.47;9.17;;;19.10;32.30;;;;;;5074332;28;20469;-72
2021/03/07 11:20:08;;;;;;;10.37;8.50;;;19.40;30.60;;;;;;5074076;28;20802;-76
2021/03/07 11:22:35;;;;;;;9.97;9.10;;;19.70;30.40;;;;;;5074544;28;20429;-72
2021/03/07 11:25:01;;;;;;;11.20;10.23;;;19.90;29.50;;;;;;5074118;28;20847;-72
2021/03/07 11:27:27;;;;;;;11.53;10.50;;;20.10;29.80;;;;;;5073885;28;20460;-72
2021/03/07 11:29:53;;;;;;;11.10;10.13;;;20.30;29.50;;;;;;5073879;28;20453;-72
2021/03/07 11:32:21;;;;;;;12.40;11.20;;;20.00;29.30;;;;;;5073878;28;20973;-73
2021/03/07 11:34:47;;;;;;;13.20;11.80;;;20.10;29.60;;;;;;5073846;28;20437;-71
2021/03/07 11:37:13;;;;;;;15.27;13.97;;;20.30;28.90;;;;;;5073729;28;20465;-71
2021/03/07 11:39:39;;;;;;;14.27;13.07;;;20.50;28.80;;;;;;5073808;28;20432;-73
2021/03/07 11:42:07;;;;;;;12.67;11.67;;;20.80;28.30;;;;;;5073598;28;20441;-70
2021/03/07 11:44:33;;;;;;;13.17;12.07;;;21.10;28.40;;;;;;5073690;28;20460;-70
2021/03/07 11:46:59;;;;;;;13.33;12.30;;;21.40;27.90;;;;;;5073573;28;20464;-72
2021/03/07 11:49:26;;;;;;;15.90;14.33;;;21.80;28.00;;;;;;5073666;28;20448;-71
2021/03/07 11:51:52;;;;;;;17.90;16.40;;;22.20;27.10;;;;;;5073652;28;20436;-71
2021/03/07 11:54:19;;;;;;;18.63;17.03;;;22.60;25.70;;;;;;5073607;28;20535;-71
2021/03/07 11:56:45;;;;;;;17.30;15.83;;;22.30;25.40;;;;;;5073423;28;20473;-71
2021/03/07 11:59:12;;;;;;;16.33;14.97;;;21.70;26.20;;;;;;5073513;28;20445;-72
2021/03/07 12:01:38;;;;;;;15.97;14.73;;;21.50;26.90;;;;;;5073487;28;20441;-74
2021/03/07 12:04:04;;;;;;;16.53;14.90;;;21.30;26.70;;;;;;5073083;28;20479;-72
2021/03/07 12:06:31;;;;;;;14.93;13.80;;;21.20;27.20;;;;;;5073232;28;20483;-71
2021/03/07 12:08:58;;;;;;;17.10;15.37;;;21.50;26.90;;;;;;5073406;28;20444;-72
2021/03/07 12:11:24;;;;;;;14.83;13.57;;;21.90;26.50;;;;;;5073385;28;20433;-71
2021/03/07 12:13:50;;;;;;;13.27;12.17;;;22.50;26.30;;;;;;5073418;28;20424;-72
2021/03/07 12:16:16;;;;;;;14.10;12.90;;;23.10;25.50;;;;;;5072992;28;20437;-73
2021/03/07 12:18:43;;;;;;;11.87;10.87;;;23.60;24.50;;;;;;5073302;28;20452;-73
2021/03/07 12:21:10;;;;;;;11.90;10.90;;;24.10;23.80;;;;;;5073299;28;20470;-72
2021/03/07 12:23:37;;;;;;;14.50;13.27;;;23.90;23.40;;;;;;5073223;28;20494;-72
2021/03/07 12:26:04;;;;;;;11.63;10.80;;;23.40;23.50;;;;;;5075538;28;20922;-73
2021/03/07 12:28:32;;;;;;;13.07;11.97;;;23.40;24.50;;;;;;5077382;28;20442;-72
2021/03/07 12:30:58;;;;;;;13.17;11.80;;;23.70;23.80;;;;;;5077041;28;20956;-72
2021/03/07 12:33:25;;;;;;;14.90;12.30;;;24.00;23.60;;;;;;5077261;28;20443;-73
2021/03/07 12:35:51;;;;;;;12.23;11.00;;;24.40;23.30;;;;;;5077331;28;20777;-72
2021/03/07 12:38:17;;;;;;;11.40;10.50;;;24.90;23.40;;;;;;5076739;28;20946;-73
2021/03/07 12:40:44;;;;;;;13.23;11.87;;;25.30;22.60;;;;;;5077402;28;20452;-71
2021/03/07 12:43:10;;;;;;;14.10;12.83;;;25.70;21.70;;;;;;5077035;28;20449;-71